Time;durP1;ratioP1;P1;durP2;ratioP2;P2;SDS_P1;SDS_P2;PMS_P1;PMS_P2;Temp;Humidity;BMP_temperature;BMP_pressure;BME280_temperature;BME280_humidity;BME280_pressure;Samples;Min_cycle;Max_cycle;Signal;HPM_P1;HPM_P2
2023/03/30 00:04:21;;;;;;;9.75;2.00;;;;;;;22.78;35.88;101594.09;21082841;28;20073;-69
2023/03/30 00:14:28;;;;;;;8.48;1.77;;;;;;;22.57;36.02;101592.41;21044892;28;20040;-72
2023/03/30 00:24:29;;;;;;;4.25;1.60;;;;;;;22.70;35.83;101614.19;21089060;28;20043;-70
2023/03/30 00:34:31;;;;;;;5.50;1.70;;;;;;;22.40;35.63;101586.22;21085558;28;20109;-69
2023/03/30 00:45:10;;;;;;;2.17;1.17;;;;;;;22.62;36.32;101644.56;21086538;28;20066;-69
2023/03/30 00:55:15;;;;;;;4.53;1.65;;;;;;;22.65;35.66;101647.66;21087126;28;20032;-69
2023/03/30 01:05:16;;;;;;;3.63;1.60;;;;;;;22.61;35.48;101654.91;21082054;28;20036;-70
2023/03/30 01:15:19;;;;;;;5.35;1.60;;;;;;;22.50;35.37;101647.63;21066539;28;20044;-70
2023/03/30 01:25:55;;;;;;;4.53;1.63;;;;;;;22.58;35.98;101664.63;21088092;28;20048;-69
2023/03/30 01:35:59;;;;;;;3.38;1.85;;;;;;;22.72;35.18;101667.75;21069794;28;20040;-70
2023/03/30 01:46:31;;;;;;;4.75;1.83;;;;;;;22.32;34.88;101602.41;21081712;28;20384;-73
2023/03/30 01:56:41;;;;;;;6.40;1.88;;;;;;;22.54;34.76;101637.56;21071427;28;20526;-72
2023/03/30 02:06:50;;;;;;;2.53;1.65;;;;;;;22.27;34.94;101582.88;21081118;28;20052;-72
2023/03/30 02:17:17;;;;;;;2.42;1.50;;;;;;;22.23;34.82;101586.47;21075497;28;20117;-71
2023/03/30 02:27:20;;;;;;;6.82;2.08;;;;;;;22.53;34.66;101619.16;21079574;28;20903;-67
2023/03/30 02:37:39;;;;;;;2.67;1.70;;;;;;;22.56;34.88;101621.41;21074905;28;20540;-70
2023/03/30 02:48:07;;;;;;;6.60;1.92;;;;;;;22.57;34.66;101611.94;21077149;28;20036;-69
2023/03/30 02:58:49;;;;;;;4.28;1.73;;;;;;;22.44;35.64;101604.09;21069541;28;20044;-73
2023/03/30 03:08:53;;;;;;;5.22;2.10;;;;;;;22.16;35.84;101549.66;21057684;28;20070;-68
2023/03/30 03:18:55;;;;;;;4.80;1.50;;;;;;;22.39;35.67;101577.03;21060406;28;20052;-74
2023/03/30 03:28:57;;;;;;;4.70;1.75;;;;;;;22.42;35.88;101567.28;21069662;28;20074;-66
2023/03/30 03:38:59;;;;;;;3.45;1.60;;;;;;;22.49;35.84;101590.97;21069864;28;20039;-68
2023/03/30 03:49:00;;;;;;;3.58;1.70;;;;;;;22.44;36.02;101607.72;21065774;28;20044;-73
2023/03/30 03:59:03;;;;;;;4.20;1.70;;;;;;;22.24;35.94;101683.78;21071677;28;20074;-68
2023/03/30 04:09:07;;;;;;;2.72;1.80;;;;;;;22.38;35.82;101734.31;21079962;28;20320;-67
2023/03/30 04:19:11;;;;;;;10.93;2.47;;;;;;;22.18;36.73;101723.91;21083629;28;20039;-67
2023/03/30 04:29:14;;;;;;;4.03;1.98;;;;;;;22.22;37.04;101725.03;21086234;28;20037;-66
2023/03/30 04:39:17;;;;;;;7.07;1.75;;;;;;;22.37;36.78;101802.34;21076679;28;20048;-68
2023/03/30 04:49:18;;;;;;;6.90;2.00;;;;;;;22.36;37.09;101822.13;21079314;28;20074;-67
2023/03/30 04:59:20;;;;;;;4.32;1.90;;;;;;;22.35;37.31;101834.38;21081837;28;20039;-67
2023/03/30 05:09:23;;;;;;;3.80;1.88;;;;;;;22.35;37.15;101848.31;21077580;28;20048;-69
2023/03/30 05:19:24;;;;;;;3.60;1.80;;;;;;;22.32;37.04;101867.28;21080385;28;20040;-67
2023/03/30 05:29:26;;;;;;;6.63;1.98;;;;;;;21.91;36.88;101812.31;21074987;28;20097;-66
2023/03/30 05:39:30;;;;;;;2.58;1.80;;;;;;;22.27;36.90;101878.41;21032454;28;20044;-67
2023/03/30 05:49:31;;;;;;;4.97;2.20;;;;;;;22.25;36.60;101896.50;21009235;28;20043;-67
2023/03/30 05:59:33;;;;;;;5.55;1.60;;;;;;;22.27;36.79;101930.56;21046012;28;20032;-67
2023/03/30 06:09:34;;;;;;;1.63;1.35;;;;;;;22.25;36.45;101930.78;21055059;28;20028;-67
2023/03/30 06:19:36;;;;;;;1.58;1.30;;;;;;;22.22;36.47;101931.34;21071773;28;20040;-68
2023/03/30 06:29:37;;;;;;;2.35;1.10;;;;;;;21.92;36.56;101898.44;21070384;28;20052;-68
2023/03/30 06:39:38;;;;;;;2.10;1.85;;;;;;;22.19;36.48;101965.31;21047901;28;20044;-68
2023/03/30 06:49:40;;;;;;;2.00;1.30;;;;;;;22.15;36.58;102003.19;21043379;28;20067;-67
2023/03/30 06:59:41;;;;;;;1.85;1.17;;;;;;;22.14;36.57;102037.75;21074855;28;20040;-66
2023/03/30 07:09:43;;;;;;;1.10;1.02;;;;;;;22.08;36.21;102069.41;21074498;28;20097;-67
2023/03/30 07:19:44;;;;;;;3.13;1.25;;;;;;;22.09;35.55;102071.13;21075241;28;20044;-67
2023/03/30 07:29:46;;;;;;;2.53;1.08;;;;;;;21.97;35.03;102073.22;21077276;28;20065;-67
2023/03/30 07:39:47;;;;;;;1.45;0.77;;;;;;;21.78;34.84;102059.63;21062032;28;20048;-68
2023/03/30 07:49:49;;;;;;;1.77;1.02;;;;;;;22.08;34.85;102125.19;21076895;28;20040;-67
2023/03/30 07:59:50;;;;;;;1.27;0.80;;;;;;;22.14;34.44;102138.13;21079295;28;20048;-68
2023/03/30 08:09:52;;;;;;;2.25;0.80;;;;;;;22.17;34.29;102159.03;21060166;28;20036;-67
2023/03/30 08:19:55;;;;;;;0.63;0.63;;;;;;;22.02;33.79;102163.28;21088885;28;20056;-67
2023/03/30 08:29:59;;;;;;;1.42;0.80;;;;;;;22.07;33.89;102195.97;21081833;28;20069;-68
2023/03/30 08:40:00;;;;;;;0.98;0.90;;;;;;;22.02;34.02;102204.28;21085980;28;20048;-68
2023/03/30 08:50:13;;;;;;;1.10;0.75;;;;;;;22.03;33.75;102211.53;21083763;28;20044;-67
2023/03/30 09:00:26;;;;;;;1.65;0.80;;;;;;;21.97;33.85;102243.22;21069582;28;20051;-67
2023/03/30 09:10:33;;;;;;;0.60;0.60;;;;;;;21.91;33.79;102249.84;21084479;28;20395;-69
2023/03/30 09:20:37;;;;;;;1.23;0.65;;;;;;;21.98;33.60;102292.28;21079816;28;20040;-68
2023/03/30 09:30:41;;;;;;;0.52;0.52;;;;;;;21.98;33.24;102304.28;21077309;28;20044;-67
2023/03/30 09:41:06;;;;;;;1.45;0.60;;;;;;;21.93;33.62;102322.88;21073205;28;20113;-68
2023/03/30 09:51:25;;;;;;;1.05;0.85;;;;;;;21.85;33.23;102326.06;21081286;28;20052;-67
2023/03/30 10:01:36;;;;;;;0.50;0.50;;;;;;;21.94;33.10;102358.84;21078322;28;20044;-67
2023/03/30 10:11:40;;;;;;;0.65;0.65;;;;;;;21.95;33.13;102388.41;21086565;28;20549;-67
2023/03/30 10:21:45;;;;;;;0.60;0.50;;;;;;;21.94;32.69;102419.31;21078409;28;20113;-67
2023/03/30 10:31:48;;;;;;;0.88;0.80;;;;;;;21.88;32.71;102431.47;21075835;28;20040;-66
2023/03/30 10:41:51;;;;;;;0.82;0.60;;;;;;;21.79;32.65;102434.66;21076877;28;20048;-67
2023/03/30 10:52:25;;;;;;;0.75;0.68;;;;;;;21.85;32.66;102468.19;21087745;28;20040;-67
2023/03/30 11:02:48;;;;;;;14.93;2.42;;;;;;;21.88;34.09;102495.56;21062086;28;20043;-72
2023/03/30 11:13:01;;;;;;;16.67;1.85;;;;;;;21.67;33.86;102497.97;21072590;28;20044;-75
2023/03/30 11:23:15;;;;;;;6.95;1.20;;;;;;;21.82;33.67;102544.81;21042222;28;20044;-80
2023/03/30 11:33:37;;;;;;;7.60;1.15;;;;;;;21.67;33.91;102548.13;21075355;28;20098;-72
2023/03/30 11:43:40;;;;;;;4.10;1.30;;;;;;;21.86;33.65;102595.31;21052145;28;20494;-71
2023/03/30 11:54:00;;;;;;;7.20;1.10;;;;;;;21.83;36.63;102605.00;21040329;28;20089;-71
2023/03/30 12:04:10;;;;;;;4.38;1.10;;;;;;;21.84;37.62;102620.63;21069557;28;20090;-71
2023/03/30 12:14:42;;;;;;;3.58;1.23;;;;;;;21.91;37.12;102640.00;21070709;28;20556;-71
2023/03/30 12:25:11;;;;;;;3.60;0.90;;;;;;;21.97;36.78;102652.94;21039728;28;20081;-74
2023/03/30 12:35:47;;;;;;;5.10;0.97;;;;;;;20.76;36.76;102450.38;20999661;28;20056;-70
2023/03/30 12:46:04;;;;;;;21.63;3.42;;;;;;;22.10;39.25;102658.25;21057037;28;20044;-71
2023/03/30 12:56:27;;;;;;;18.15;3.22;;;;;;;22.16;41.46;102646.13;21079757;28;20040;-73
2023/03/30 13:06:34;;;;;;;16.77;2.28;;;;;;;22.28;41.80;102672.03;21078573;28;20070;-67
2023/03/30 13:16:51;;;;;;;16.33;2.05;;;;;;;22.33;40.27;102672.13;21083582;28;20036;-67
2023/03/30 13:26:53;;;;;;;8.90;2.08;;;;;;;22.41;39.23;102675.63;21082990;28;20074;-67
2023/03/30 13:37:19;;;;;;;11.25;2.08;;;;;;;22.39;36.49;102688.97;21082023;28;20036;-68
2023/03/30 13:47:26;;;;;;;4.38;1.77;;;;;;;22.38;35.86;102707.63;21083716;28;20395;-68
2023/03/30 13:57:34;;;;;;;2.03;1.10;;;;;;;22.39;35.80;102709.31;21080706;28;20040;-68
2023/03/30 14:07:41;;;;;;;2.40;1.07;;;;;;;22.39;34.56;102703.75;21079714;28;20040;-68
2023/03/30 14:17:55;;;;;;;1.33;0.90;;;;;;;22.38;34.68;102726.31;21065135;28;20693;-68
2023/03/30 14:28:02;;;;;;;2.17;1.20;;;;;;;22.36;34.01;102731.28;21059578;28;20044;-67
2023/03/30 14:38:05;;;;;;;2.50;1.20;;;;;;;22.22;33.56;102717.66;21078706;28;20080;-67
2023/03/30 14:48:19;;;;;;;4.07;0.90;;;;;;;21.95;33.68;102694.19;21072700;28;20036;-68
2023/03/30 14:58:20;;;;;;;1.45;0.80;;;;;;;22.23;34.56;102741.66;21077779;28;20105;-67
2023/03/30 15:08:28;;;;;;;2.75;1.10;;;;;;;22.20;33.66;102747.72;21076047;28;20468;-67
2023/03/30 15:18:32;;;;;;;1.80;1.10;;;;;;;22.15;34.06;102727.25;21076649;28;20052;-67
2023/03/30 15:28:44;;;;;;;1.65;1.08;;;;;;;22.15;33.43;102725.28;21062966;28;20048;-67
2023/03/30 15:38:53;;;;;;;1.10;0.95;;;;;;;22.05;34.06;102733.41;21054902;28;20074;-68
2023/03/30 15:48:56;;;;;;;1.80;0.95;;;;;;;22.04;34.75;102728.94;21072449;28;20040;-67
2023/03/30 15:58:58;;;;;;;1.80;1.00;;;;;;;22.02;34.59;102706.03;21071730;28;20040;-68
2023/03/30 16:09:02;;;;;;;0.90;0.80;;;;;;;22.20;34.14;102730.13;21080952;28;20070;-68
2023/03/30 16:19:03;;;;;;;1.17;1.00;;;;;;;22.06;33.57;102696.06;21090077;28;20069;-68
2023/03/30 16:29:17;;;;;;;1.80;1.10;;;;;;;22.29;33.82;102729.50;21086940;28;20101;-68
2023/03/30 16:39:20;;;;;;;1.05;0.75;;;;;;;22.34;33.68;102714.81;21088621;28;20040;-68
2023/03/30 16:49:26;;;;;;;0.93;0.82;;;;;;;22.25;33.46;102672.50;21086203;28;20044;-68
2023/03/30 16:59:29;;;;;;;2.08;0.90;;;;;;;22.41;33.65;102686.78;21084816;28;20095;-68
2023/03/30 17:09:30;;;;;;;3.38;0.85;;;;;;;22.49;33.49;102694.72;21083583;28;20052;-67
2023/03/30 17:19:32;;;;;;;1.45;0.77;;;;;;;22.53;33.71;102679.19;21083140;28;20040;-69
2023/03/30 17:29:33;;;;;;;1.05;0.70;;;;;;;22.53;33.77;102642.91;21070196;28;20048;-68
2023/03/30 17:39:35;;;;;;;0.93;0.80;;;;;;;22.45;33.64;102621.00;21053142;28;20047;-68
2023/03/30 17:49:39;;;;;;;1.25;1.00;;;;;;;22.65;33.53;102632.53;21081233;28;20036;-68
2023/03/30 17:59:40;;;;;;;1.60;0.73;;;;;;;22.63;33.46;102617.97;21079979;28;20040;-67
2023/03/30 18:09:41;;;;;;;0.70;0.70;;;;;;;22.71;33.24;102619.53;21081716;28;20113;-68
2023/03/30 18:19:47;;;;;;;1.00;0.80;;;;;;;22.31;33.22;102528.44;21078445;28;20064;-69
2023/03/30 18:29:51;;;;;;;1.02;0.82;;;;;;;22.65;33.13;102576.75;21079039;28;20384;-69
2023/03/30 18:39:52;;;;;;;1.05;0.70;;;;;;;22.76;32.92;102583.31;21069838;28;20056;-68
2023/03/30 18:49:59;;;;;;;0.52;0.52;;;;;;;22.76;33.28;102578.59;21077618;28;20044;-68
2023/03/30 19:00:12;;;;;;;0.77;0.70;;;;;;;22.77;32.87;102557.97;21060615;28;20044;-68
2023/03/30 19:10:17;;;;;;;1.17;0.70;;;;;;;22.79;33.15;102560.50;21064335;28;20097;-67
2023/03/30 19:20:23;;;;;;;1.17;0.85;;;;;;;22.81;33.21;102555.50;21049520;28;20048;-68
2023/03/30 19:30:26;;;;;;;1.48;0.77;;;;;;;22.80;33.07;102540.69;21072700;28;20066;-72
2023/03/30 19:40:27;;;;;;;1.02;1.00;;;;;;;22.58;33.49;102501.56;21037416;28;20040;-71
2023/03/30 19:50:28;;;;;;;1.30;0.82;;;;;;;22.71;33.25;102519.91;21080895;28;20028;-71
2023/03/30 20:00:33;;;;;;;0.68;0.60;;;;;;;22.78;33.53;102503.84;21077178;28;20047;-72
2023/03/30 20:10:37;;;;;;;1.88;0.90;;;;;;;22.84;33.42;102508.38;21038840;28;20093;-78
2023/03/30 20:20:40;;;;;;;3.28;0.88;;;;;;;22.84;33.24;102508.38;21077169;28;20399;-77
2023/03/30 20:30:41;;;;;;;3.00;0.88;;;;;;;22.69;32.92;102476.63;21061718;28;20545;-76
2023/03/30 20:40:56;;;;;;;1.58;0.70;;;;;;;22.62;33.25;102476.78;21068790;28;20141;-73
2023/03/30 20:51:00;;;;;;;1.70;0.65;;;;;;;22.76;33.15;102486.50;21062001;28;20102;-72
2023/03/30 21:01:24;;;;;;;3.22;0.80;;;;;;;22.76;33.60;102500.44;21047434;28;20101;-72
2023/03/30 21:11:27;;;;;;;5.43;1.10;;;;;;;22.75;33.16;102492.34;21079139;28;20117;-73
2023/03/30 21:21:30;;;;;;;2.55;0.77;;;;;;;22.80;33.49;102496.03;21079435;28;20048;-72
2023/03/30 21:31:31;;;;;;;2.10;0.90;;;;;;;22.37;33.67;102434.56;21081110;28;20480;-72
2023/03/30 21:41:32;;;;;;;1.63;0.88;;;;;;;22.70;33.42;102497.84;21060191;28;20047;-72
2023/03/30 21:51:34;;;;;;;1.33;0.70;;;;;;;22.68;33.38;102506.47;21051005;28;20113;-72
2023/03/30 22:01:37;;;;;;;2.70;0.82;;;;;;;22.63;33.54;102520.31;21079835;28;20044;-73
2023/03/30 22:11:38;;;;;;;1.02;0.70;;;;;;;22.63;33.51;102528.69;21080527;28;20051;-73
2023/03/30 22:21:40;;;;;;;3.33;0.90;;;;;;;22.24;33.17;102466.41;21079829;28;20042;-73
2023/03/30 22:31:41;;;;;;;3.20;0.95;;;;;;;22.31;33.50;102501.41;21077442;28;20047;-73
2023/03/30 22:41:42;;;;;;;1.25;0.70;;;;;;;22.54;33.22;102553.41;21095666;28;20048;-72
2023/03/30 22:51:49;;;;;;;1.67;1.02;;;;;;;22.45;33.27;102531.75;21078532;28;20048;-73
2023/03/30 23:01:51;;;;;;;1.33;0.80;;;;;;;22.20;33.11;102507.91;21019987;28;20044;-73
2023/03/30 23:11:55;;;;;;;0.88;0.88;;;;;;;22.47;32.84;102554.66;21067319;28;20044;-73
2023/03/30 23:21:57;;;;;;;1.30;0.90;;;;;;;22.20;32.26;102530.22;21072652;28;20040;-74
2023/03/30 23:31:58;;;;;;;1.55;1.00;;;;;;;22.15;31.70;102532.91;21059871;28;20102;-67
2023/03/30 23:42:00;;;;;;;7.53;1.50;;;;;;;22.43;32.48;102596.16;21070530;28;20106;-72
2023/03/30 23:52:01;;;;;;;5.38;1.00;;;;;;;22.43;32.79;102604.53;21071440;28;20148;-73
